Time;durP1;ratioP1;P1;durP2;ratioP2;P2;SDS_P1;SDS_P2;PMS_P1;PMS_P2;Temp;Humidity;BMP_temperature;BMP_pressure;BME280_temperature;BME280_humidity;BME280_pressure;Samples;Min_cycle;Max_cycle;Signal;HPM_P1;HPM_P2
2022/01/26 00:07:16;;;;;;;77.63;33.92;;;3.40;99.90;;;;;;4786731;29;20075;-64
2022/01/26 00:09:43;;;;;;;81.53;34.28;;;3.30;99.90;;;;;;4786592;29;20540;-63
2022/01/26 00:12:09;;;;;;;77.68;32.65;;;3.30;99.90;;;;;;4784485;29;20481;-63
2022/01/26 00:14:38;;;;;;;80.30;31.73;;;3.30;99.90;;;;;;4786422;29;20039;-63
2022/01/26 00:17:04;;;;;;;73.55;30.77;;;3.30;99.90;;;;;;4785986;29;20054;-63
2022/01/26 00:19:45;;;;;;;76.53;32.70;;;3.30;99.90;;;;;;4785202;29;20043;-63
2022/01/26 00:22:22;;;;;;;76.78;31.67;;;3.30;99.90;;;;;;4785547;29;20062;-63
2022/01/26 00:25:23;;;;;;;77.50;32.42;;;3.30;99.90;;;;;;4784751;29;20059;-63
2022/01/26 00:38:42;;;;;;;80.90;32.45;;;3.30;99.90;;;;;;4785111;29;20067;-63
2022/01/26 00:41:14;;;;;;;80.30;32.13;;;3.20;99.90;;;;;;4785127;29;20074;-63
2022/01/26 00:43:46;;;;;;;84.65;33.50;;;3.20;99.90;;;;;;4782775;29;20040;-63
2022/01/26 00:46:12;;;;;;;81.65;32.60;;;3.30;99.90;;;;;;4785947;29;20043;-63
2022/01/26 00:48:38;;;;;;;84.78;33.53;;;3.20;99.90;;;;;;4786184;29;20405;-63
2022/01/26 00:51:06;;;;;;;87.07;32.80;;;3.30;99.90;;;;;;4783394;29;20055;-63
2022/01/26 00:53:36;;;;;;;82.43;33.22;;;3.20;99.90;;;;;;4785783;29;20101;-63
2022/01/26 00:56:04;;;;;;;78.05;32.00;;;3.20;99.90;;;;;;4784818;29;20051;-63
2022/01/26 00:58:31;;;;;;;82.90;32.33;;;3.10;99.90;;;;;;4786332;29;20061;-63
2022/01/26 01:00:59;;;;;;;75.75;31.52;;;3.10;99.90;;;;;;4784478;29;20050;-63
2022/01/26 01:03:25;;;;;;;81.28;34.80;;;3.10;99.90;;;;;;4784977;29;20047;-63
2022/01/26 01:06:00;;;;;;;78.93;33.22;;;3.10;99.90;;;;;;4783517;29;20047;-63
2022/01/26 01:08:26;;;;;;;78.93;31.73;;;3.80;99.90;;;;;;4783279;29;20054;-63
2022/01/26 01:10:54;;;;;;;86.00;36.08;;;3.10;99.90;;;;;;4783287;29;20055;-63
2022/01/26 01:13:24;;;;;;;80.68;34.20;;;3.10;99.90;;;;;;4785999;29;20050;-63
2022/01/26 01:15:51;;;;;;;77.85;32.15;;;3.10;99.90;;;;;;4784089;29;20486;-63
2022/01/26 01:18:25;;;;;;;87.90;34.55;;;3.10;99.90;;;;;;4787800;29;20055;-63
2022/01/26 01:23:46;;;;;;;84.60;33.58;;;3.10;99.90;;;;;;4789336;29;20039;-63
2022/01/26 01:34:12;;;;;;;84.72;32.45;;;3.10;99.90;;;;;;4789603;29;20130;-63
2022/01/26 01:36:40;;;;;;;84.53;34.78;;;3.10;99.90;;;;;;4788530;29;20133;-63
2022/01/26 01:39:07;;;;;;;76.25;31.60;;;3.10;99.90;;;;;;4789452;29;20134;-63
2022/01/26 01:41:34;;;;;;;89.72;35.53;;;3.10;99.90;;;;;;4789173;29;20105;-63
2022/01/26 01:44:00;;;;;;;93.40;36.08;;;3.10;99.90;;;;;;4788963;29;20108;-63
2022/01/26 01:46:28;;;;;;;87.78;34.58;;;3.10;99.90;;;;;;4790153;29;20588;-63
2022/01/26 01:48:54;;;;;;;88.13;34.72;;;3.10;99.90;;;;;;4788781;29;20054;-63
2022/01/26 01:51:26;;;;;;;87.97;34.28;;;3.10;99.90;;;;;;4787679;29;20459;-63
2022/01/26 01:53:52;;;;;;;82.28;31.95;;;3.10;99.90;;;;;;4788783;29;20047;-63
2022/01/26 01:56:22;;;;;;;96.78;35.75;;;3.10;99.90;;;;;;4788722;29;20047;-63
2022/01/26 01:58:48;;;;;;;95.43;35.97;;;3.10;99.90;;;;;;4787601;29;20069;-63
2022/01/26 02:01:13;;;;;;;84.32;33.95;;;3.10;99.90;;;;;;4789117;29;20564;-63
2022/01/26 02:03:39;;;;;;;89.72;36.25;;;3.10;99.90;;;;;;4788558;29;20390;-63
2022/01/26 02:06:05;;;;;;;89.40;34.08;;;3.10;99.90;;;;;;4788016;29;20072;-63
2022/01/26 02:08:31;;;;;;;82.53;33.38;;;3.10;99.90;;;;;;4789075;29;20084;-63
2022/01/26 02:10:56;;;;;;;93.60;35.30;;;3.10;99.90;;;;;;4788965;29;20051;-63
2022/01/26 02:13:30;;;;;;;91.90;35.58;;;3.00;99.90;;;;;;4788170;29;20043;-63
2022/01/26 02:56:07;;;;;;;79.57;29.23;;;2.90;99.90;;;;;;4785156;29;20518;-63
2022/01/26 03:06:07;;;;;;;88.72;31.55;;;3.10;99.90;;;;;;4786324;29;20059;-63
2022/01/26 03:08:38;;;;;;;87.70;33.53;;;2.80;99.90;;;;;;4787053;29;20046;-63
2022/01/26 03:11:10;;;;;;;88.15;33.58;;;3.00;99.90;;;;;;4787613;29;20108;-63
2022/01/26 03:13:40;;;;;;;85.85;31.77;;;2.90;99.90;;;;;;4785105;29;20047;-63
2022/01/26 03:16:13;;;;;;;87.50;33.35;;;2.90;99.90;;;;;;4786643;29;20054;-63
2022/01/26 03:21:31;;;;;;;81.68;31.67;;;2.90;99.90;;;;;;4786668;29;20142;-63
2022/01/26 03:29:40;;;;;;;70.22;27.88;;;2.90;99.90;;;;;;4786941;29;20527;-63
2022/01/26 03:34:32;;;;;;;72.45;28.25;;;2.90;99.90;;;;;;4787361;29;20063;-63
2022/01/26 03:37:03;;;;;;;78.60;29.52;;;2.90;99.90;;;;;;4787451;29;20047;-63
2022/01/26 03:39:30;;;;;;;81.63;29.92;;;2.90;99.90;;;;;;4784068;29;20054;-63
2022/01/26 03:42:04;;;;;;;79.22;29.48;;;2.90;99.90;;;;;;4783040;29;20035;-63
2022/01/26 03:44:30;;;;;;;69.53;26.95;;;2.90;99.90;;;;;;4786515;29;20051;-63
2022/01/26 03:46:56;;;;;;;79.30;27.88;;;2.90;99.90;;;;;;4786608;29;20535;-63
2022/01/26 03:49:22;;;;;;;76.18;27.70;;;2.90;99.90;;;;;;4786670;29;20039;-63
2022/01/26 03:51:48;;;;;;;74.57;29.38;;;2.90;99.90;;;;;;4786807;29;20085;-63
2022/01/26 03:54:16;;;;;;;78.57;28.77;;;3.00;99.90;;;;;;4787307;29;20039;-63
2022/01/26 03:56:42;;;;;;;71.28;27.58;;;2.90;99.90;;;;;;4786663;29;20051;-63
2022/01/26 03:59:08;;;;;;;73.05;26.95;;;2.90;99.90;;;;;;4786342;29;20085;-63
2022/01/26 04:01:35;;;;;;;73.60;27.85;;;2.90;99.90;;;;;;4785879;29;20047;-63
2022/01/26 04:04:02;;;;;;;72.18;28.27;;;3.10;99.90;;;;;;4786927;29;20039;-63
2022/01/26 04:06:29;;;;;;;74.90;28.10;;;2.90;99.90;;;;;;4786988;29;20432;-63
2022/01/26 04:08:55;;;;;;;76.32;27.38;;;2.90;99.90;;;;;;4785107;29;20512;-63
2022/01/26 04:13:46;;;;;;;68.72;26.63;;;2.90;99.90;;;;;;4786810;29;20054;-63
2022/01/26 04:16:12;;;;;;;75.40;27.58;;;2.90;99.90;;;;;;4787398;29;20047;-63
2022/01/26 04:18:40;;;;;;;74.40;26.35;;;2.90;99.90;;;;;;4786870;29;20078;-63
2022/01/26 04:24:01;;;;;;;68.38;26.50;;;3.00;99.90;;;;;;4749239;30;20043;-63
2022/01/26 04:26:36;;;;;;;69.53;26.45;;;2.90;99.90;;;;;;4786654;29;20412;-63
2022/01/26 04:29:08;;;;;;;79.07;26.23;;;2.90;99.90;;;;;;4792255;29;20420;-63
2022/01/26 04:31:34;;;;;;;73.15;24.98;;;2.90;99.90;;;;;;4787079;29;20408;-63
2022/01/26 04:34:00;;;;;;;65.68;24.85;;;2.90;99.90;;;;;;4785644;29;20039;-63
2022/01/26 04:36:32;;;;;;;66.43;25.52;;;2.90;99.90;;;;;;4786666;29;20043;-63
2022/01/26 04:39:02;;;;;;;66.95;24.75;;;2.90;99.90;;;;;;4786683;29;20409;-63
2022/01/26 04:43:58;;;;;;;65.63;24.90;;;2.90;99.90;;;;;;4785227;30;20485;-63
2022/01/26 04:46:26;;;;;;;65.85;25.48;;;2.90;99.90;;;;;;4784574;29;20152;-63
2022/01/26 04:48:52;;;;;;;68.93;26.90;;;2.90;99.90;;;;;;4786264;29;20046;-63
2022/01/26 04:51:18;;;;;;;66.10;25.98;;;2.90;99.90;;;;;;4787263;29;20052;-63
2022/01/26 04:53:43;;;;;;;71.72;26.13;;;2.90;99.90;;;;;;4789961;29;20397;-63
2022/01/26 04:56:09;;;;;;;76.18;25.35;;;2.90;99.90;;;;;;4789851;29;20047;-63
2022/01/26 04:58:35;;;;;;;72.40;25.92;;;2.90;99.90;;;;;;4789998;29;20050;-63
2022/01/26 05:01:00;;;;;;;67.68;26.20;;;2.90;99.90;;;;;;4788208;29;20134;-63
2022/01/26 05:03:26;;;;;;;61.03;22.95;;;2.90;99.90;;;;;;4789916;29;20594;-63
2022/01/26 05:05:52;;;;;;;64.40;21.90;;;2.80;99.90;;;;;;4790254;29;20070;-63
2022/01/26 05:08:17;;;;;;;59.47;23.88;;;2.80;99.90;;;;;;4789429;29;20050;-63
2022/01/26 05:10:44;;;;;;;61.35;22.73;;;2.90;99.90;;;;;;4789124;29;20035;-63
2022/01/26 05:13:13;;;;;;;59.25;23.83;;;2.90;99.90;;;;;;4788210;29;20112;-63
2022/01/26 05:15:38;;;;;;;62.13;24.33;;;2.90;99.90;;;;;;4788537;29;20051;-63
2022/01/26 05:18:06;;;;;;;56.95;21.38;;;2.90;99.90;;;;;;4787533;29;20047;-63
2022/01/26 05:20:32;;;;;;;59.40;22.92;;;2.90;99.90;;;;;;4789243;29;20132;-63
2022/01/26 05:22:59;;;;;;;60.58;22.60;;;2.90;99.90;;;;;;4788133;29;20043;-63
2022/01/26 05:25:24;;;;;;;62.10;22.52;;;2.90;99.90;;;;;;4788382;29;20055;-63
2022/01/26 05:27:50;;;;;;;59.75;22.17;;;2.90;99.90;;;;;;4787528;29;20410;-63
2022/01/26 05:30:16;;;;;;;55.55;21.48;;;2.90;99.90;;;;;;4789758;29;20130;-63
2022/01/26 05:32:41;;;;;;;56.25;22.35;;;2.90;99.90;;;;;;4789542;29;20051;-63
2022/01/26 05:35:08;;;;;;;55.13;21.20;;;2.90;99.90;;;;;;4788375;29;20047;-63
2022/01/26 05:37:33;;;;;;;54.72;22.25;;;2.90;99.90;;;;;;4789105;29;20051;-63
2022/01/26 05:40:00;;;;;;;52.10;21.08;;;2.90;99.90;;;;;;4787813;29;20047;-63
2022/01/26 05:42:26;;;;;;;59.35;21.80;;;2.90;99.90;;;;;;4789100;29;20047;-63
2022/01/26 05:44:53;;;;;;;58.17;21.00;;;2.90;99.90;;;;;;4787193;29;20054;-63
2022/01/26 05:47:20;;;;;;;62.90;24.02;;;2.90;99.90;;;;;;4787665;29;20184;-63
2022/01/26 05:49:46;;;;;;;56.20;21.15;;;2.90;99.90;;;;;;4789216;29;20058;-63
2022/01/26 05:52:12;;;;;;;62.08;23.40;;;2.90;99.90;;;;;;4788961;29;20109;-63
2022/01/26 05:54:38;;;;;;;58.42;21.35;;;2.90;99.90;;;;;;4786484;29;20075;-63
2022/01/26 05:57:04;;;;;;;58.13;20.90;;;2.90;99.90;;;;;;4784742;29;20115;-63
2022/01/26 05:59:32;;;;;;;52.72;20.63;;;3.00;99.90;;;;;;4788491;29;20062;-63
2022/01/26 06:01:58;;;;;;;56.70;22.67;;;2.90;99.90;;;;;;4788093;29;20532;-63
2022/01/26 06:04:23;;;;;;;57.78;22.23;;;2.90;99.90;;;;;;4781242;29;20036;-63
2022/01/26 06:06:49;;;;;;;52.65;22.20;;;2.90;99.90;;;;;;4783145;29;20046;-63
2022/01/26 06:09:16;;;;;;;59.95;22.63;;;3.00;99.90;;;;;;4788361;29;20083;-63
2022/01/26 06:11:42;;;;;;;62.08;23.50;;;3.00;99.90;;;;;;4788884;29;20492;-63
2022/01/26 06:14:07;;;;;;;58.55;21.67;;;3.10;99.90;;;;;;4792402;29;20051;-63
2022/01/26 06:16:33;;;;;;;53.08;21.92;;;2.90;99.90;;;;;;4788443;30;20122;-63
2022/01/26 06:18:59;;;;;;;51.85;21.08;;;3.00;99.90;;;;;;4788491;29;20070;-63
2022/01/26 06:21:24;;;;;;;54.72;22.55;;;3.00;99.90;;;;;;4787415;29;20058;-63
2022/01/26 06:23:50;;;;;;;57.53;21.40;;;3.00;99.90;;;;;;4786878;29;20111;-63
2022/01/26 06:26:16;;;;;;;54.22;21.08;;;2.90;99.90;;;;;;4781703;29;20066;-63
2022/01/26 06:28:42;;;;;;;53.83;20.75;;;2.90;99.90;;;;;;4786115;29;20043;-63
2022/01/26 06:31:11;;;;;;;54.65;21.83;;;2.90;99.90;;;;;;4788301;29;20059;-63
2022/01/26 06:33:40;;;;;;;53.22;21.65;;;2.90;99.90;;;;;;4787113;29;20043;-64
2022/01/26 06:36:06;;;;;;;52.53;20.95;;;2.90;99.90;;;;;;4787133;29;20108;-64
2022/01/26 06:38:31;;;;;;;58.35;23.23;;;3.10;99.90;;;;;;4787415;29;20047;-64
2022/01/26 06:40:58;;;;;;;57.85;22.38;;;2.90;99.90;;;;;;4784941;29;20521;-64
2022/01/26 06:43:27;;;;;;;56.72;22.42;;;2.90;99.90;;;;;;4784593;29;20451;-64
2022/01/26 06:46:02;;;;;;;57.15;24.60;;;2.90;99.90;;;;;;4786918;29;20059;-64
2022/01/26 06:51:11;;;;;;;56.72;23.77;;;2.90;99.90;;;;;;4786131;29;20059;-64
2022/01/26 06:53:36;;;;;;;64.65;27.92;;;3.00;99.90;;;;;;4786389;29;20039;-64
2022/01/26 06:56:02;;;;;;;62.28;26.58;;;3.00;99.90;;;;;;4786629;29;20389;-64
2022/01/26 06:58:28;;;;;;;64.65;28.25;;;2.90;99.90;;;;;;4783271;29;20054;-64
2022/01/26 07:00:54;;;;;;;72.45;30.92;;;3.00;99.90;;;;;;4785339;30;20131;-65
2022/01/26 07:03:19;;;;;;;72.05;30.45;;;3.00;99.90;;;;;;4786885;29;20043;-64
2022/01/26 07:05:45;;;;;;;79.43;32.40;;;2.90;99.90;;;;;;4787552;29;20413;-64
2022/01/26 07:08:11;;;;;;;85.00;33.63;;;3.00;99.90;;;;;;4786486;29;20039;-64
2022/01/26 07:10:37;;;;;;;71.78;31.27;;;3.00;99.90;;;;;;4786749;29;20444;-64
2022/01/26 07:13:03;;;;;;;77.57;34.85;;;3.00;99.90;;;;;;4787345;29;20130;-64
2022/01/26 07:21:23;;;;;;;86.00;36.90;;;3.00;99.90;;;;;;4784224;29;20439;-64
2022/01/26 07:23:48;;;;;;;91.18;38.42;;;2.90;99.90;;;;;;4782404;29;20047;-64
2022/01/26 07:26:14;;;;;;;82.47;35.65;;;2.90;99.90;;;;;;4782969;29;20054;-64
2022/01/26 07:28:40;;;;;;;95.28;39.88;;;3.00;99.90;;;;;;4785291;29;20043;-64
2022/01/26 07:31:07;;;;;;;105.47;41.92;;;3.00;99.90;;;;;;4786215;29;20176;-64
2022/01/26 07:33:33;;;;;;;92.25;39.38;;;3.00;99.90;;;;;;4782670;29;20059;-65
2022/01/26 07:35:59;;;;;;;98.47;41.90;;;3.00;99.90;;;;;;4785757;29;20574;-64
2022/01/26 07:38:26;;;;;;;113.75;49.25;;;3.10;99.90;;;;;;4783121;29;20079;-64
2022/01/26 07:40:55;;;;;;;102.57;43.10;;;3.20;99.90;;;;;;4785458;29;20059;-64
2022/01/26 07:43:21;;;;;;;109.45;45.63;;;3.00;99.90;;;;;;4784954;29;20104;-64
2022/01/26 07:45:47;;;;;;;111.13;47.03;;;3.10;99.90;;;;;;4784925;29;20124;-64
2022/01/26 07:48:13;;;;;;;104.95;43.80;;;3.10;99.90;;;;;;4785611;29;20078;-64
2022/01/26 07:50:38;;;;;;;98.40;40.92;;;3.10;99.90;;;;;;4784740;30;20393;-64
2022/01/26 07:53:04;;;;;;;112.38;46.17;;;3.10;99.90;;;;;;4786756;29;20051;-64
2022/01/26 07:55:31;;;;;;;109.78;45.58;;;4.00;99.90;;;;;;4785420;29;20047;-64
2022/01/26 07:57:57;;;;;;;101.13;45.00;;;3.10;99.90;;;;;;4786493;29;20083;-64
2022/01/26 08:00:24;;;;;;;108.22;45.47;;;3.20;99.90;;;;;;4786347;29;20055;-64
2022/01/26 08:02:50;;;;;;;118.85;48.95;;;3.20;99.90;;;;;;4786743;29;20104;-64
2022/01/26 08:05:17;;;;;;;105.40;46.63;;;3.20;99.90;;;;;;4779746;29;20570;-64
2022/01/26 08:07:43;;;;;;;110.88;45.70;;;3.20;99.90;;;;;;4785804;29;20394;-64
2022/01/26 08:10:11;;;;;;;123.63;51.00;;;3.20;99.90;;;;;;4784990;29;20561;-64
2022/01/26 08:12:38;;;;;;;108.53;48.22;;;3.30;99.90;;;;;;4787039;29;20043;-64
2022/01/26 08:15:07;;;;;;;120.25;51.17;;;3.30;99.90;;;;;;4785137;30;20083;-64
2022/01/26 08:17:33;;;;;;;118.07;48.80;;;3.30;99.90;;;;;;4785694;29;20115;-64
2022/01/26 08:19:59;;;;;;;119.25;48.70;;;3.30;99.90;;;;;;4783911;29;20051;-64
2022/01/26 08:22:27;;;;;;;119.47;48.15;;;3.30;99.90;;;;;;4785399;29;20043;-64
2022/01/26 08:24:53;;;;;;;114.38;46.22;;;3.30;99.90;;;;;;4786041;29;20569;-64
2022/01/26 08:27:21;;;;;;;124.00;49.75;;;3.30;99.90;;;;;;4790029;29;20168;-64
2022/01/26 08:29:50;;;;;;;122.10;50.80;;;3.40;99.90;;;;;;4791935;29;20100;-64
2022/01/26 08:32:17;;;;;;;124.65;48.83;;;3.40;99.90;;;;;;4788007;29;20096;-64
2022/01/26 08:34:43;;;;;;;110.18;46.00;;;3.40;99.90;;;;;;4792198;29;20385;-64
2022/01/26 08:37:09;;;;;;;129.35;51.38;;;3.40;99.90;;;;;;4792439;29;20058;-64
2022/01/26 08:39:36;;;;;;;125.93;51.53;;;3.40;99.90;;;;;;4790891;29;20035;-64
2022/01/26 08:42:05;;;;;;;126.30;49.90;;;3.40;99.90;;;;;;4790546;29;20043;-64
2022/01/26 08:44:31;;;;;;;126.47;50.17;;;3.40;99.90;;;;;;4792173;29;20063;-64
2022/01/26 08:46:57;;;;;;;130.40;51.88;;;3.40;99.90;;;;;;4791934;29;20516;-64
2022/01/26 08:49:25;;;;;;;122.07;48.83;;;3.50;99.90;;;;;;4791179;29;20047;-64
2022/01/26 08:51:51;;;;;;;119.78;50.13;;;3.40;99.90;;;;;;4791400;29;20505;-64
2022/01/26 08:54:20;;;;;;;127.93;51.13;;;3.40;99.90;;;;;;4792292;29;20047;-64
2022/01/26 08:56:47;;;;;;;136.05;51.85;;;3.50;99.90;;;;;;4790804;29;20058;-64
2022/01/26 08:59:13;;;;;;;123.75;49.80;;;4.00;99.90;;;;;;4792553;29;20093;-64
2022/01/26 09:01:39;;;;;;;124.82;50.83;;;4.60;99.90;;;;;;4791132;30;20527;-64
2022/01/26 09:04:05;;;;;;;135.00;53.00;;;3.60;99.90;;;;;;4775767;30;20111;-64
2022/01/26 09:06:33;;;;;;;123.97;50.65;;;3.60;99.90;;;;;;4790819;29;20082;-64
2022/01/26 09:09:05;;;;;;;121.20;49.17;;;3.60;99.90;;;;;;4792085;29;20057;-64
2022/01/26 09:11:30;;;;;;;118.22;47.90;;;3.60;99.90;;;;;;4791708;29;20047;-64
2022/01/26 09:13:58;;;;;;;122.30;47.67;;;3.60;99.90;;;;;;4790089;29;20561;-64
2022/01/26 09:16:25;;;;;;;122.75;50.40;;;3.60;99.90;;;;;;4792206;29;20086;-64
2022/01/26 09:18:56;;;;;;;132.10;50.00;;;3.70;99.90;;;;;;4792381;29;20393;-64
2022/01/26 09:21:22;;;;;;;116.55;47.80;;;3.70;99.90;;;;;;4790942;29;20524;-64
2022/01/26 09:23:48;;;;;;;116.93;46.22;;;3.70;99.90;;;;;;4790800;29;20051;-64
2022/01/26 09:26:15;;;;;;;120.20;47.42;;;3.70;99.90;;;;;;4790917;29;20513;-64
2022/01/26 09:28:41;;;;;;;121.43;48.05;;;3.70;99.90;;;;;;4790646;29;20058;-64
2022/01/26 09:31:07;;;;;;;119.43;48.33;;;4.00;99.90;;;;;;4790953;29;20051;-64
2022/01/26 09:33:33;;;;;;;126.30;49.03;;;3.70;99.90;;;;;;4790426;30;20412;-65
2022/01/26 09:35:58;;;;;;;121.70;49.42;;;3.80;99.90;;;;;;4790744;29;20055;-64
2022/01/26 09:38:24;;;;;;;124.72;49.70;;;3.90;99.90;;;;;;4780152;29;20112;-64
2022/01/26 09:40:51;;;;;;;128.38;49.40;;;3.80;99.90;;;;;;4787281;29;20062;-64
2022/01/26 09:43:17;;;;;;;115.95;46.47;;;3.80;99.90;;;;;;4788625;29;20092;-64
2022/01/26 09:45:46;;;;;;;121.50;47.17;;;3.80;99.90;;;;;;4784650;29;20040;-64
2022/01/26 09:48:13;;;;;;;119.22;47.20;;;3.90;99.90;;;;;;4784229;29;20130;-64
2022/01/26 09:50:44;;;;;;;104.70;42.42;;;3.90;99.90;;;;;;4785002;29;20062;-64
2022/01/26 09:53:16;;;;;;;98.47;42.60;;;5.00;99.90;;;;;;4786414;29;20051;-64
2022/01/26 09:55:43;;;;;;;101.18;42.95;;;3.90;99.90;;;;;;4789264;29;20047;-64
2022/01/26 09:58:09;;;;;;;95.22;40.97;;;3.90;99.90;;;;;;4789307;29;20047;-64
2022/01/26 10:00:36;;;;;;;100.57;41.92;;;3.90;99.90;;;;;;4786562;29;20112;-64
2022/01/26 10:03:04;;;;;;;97.90;38.67;;;4.00;99.90;;;;;;4788623;29;20051;-64
2022/01/26 10:05:41;;;;;;;95.07;41.85;;;4.10;99.90;;;;;;4788756;29;20047;-64
2022/01/26 10:08:24;;;;;;;103.25;42.38;;;4.00;99.90;;;;;;4785793;29;20698;-64
2022/01/26 10:19:00;;;;;;;76.03;36.17;;;4.10;99.90;;;;;;4787245;29;20083;-64
2022/01/26 10:21:26;;;;;;;80.90;36.80;;;4.10;99.90;;;;;;4787248;29;20539;-64
2022/01/26 10:23:54;;;;;;;81.32;37.55;;;4.10;99.90;;;;;;4784936;30;20056;-64
2022/01/26 10:26:20;;;;;;;89.85;38.92;;;4.20;99.90;;;;;;4788505;29;20149;-64
2022/01/26 10:28:53;;;;;;;84.22;38.38;;;4.30;99.90;;;;;;4788126;29;20451;-64
2022/01/26 10:31:25;;;;;;;79.32;35.65;;;4.20;99.90;;;;;;4785633;29;20223;-64
2022/01/26 10:34:11;;;;;;;69.63;33.65;;;4.30;99.90;;;;;;4788716;29;20051;-64
2022/01/26 10:36:46;;;;;;;86.60;38.13;;;4.30;99.90;;;;;;4786820;29;20096;-64
2022/01/26 10:39:24;;;;;;;81.57;35.97;;;4.20;99.90;;;;;;4787845;29;20031;-64
2022/01/26 10:41:54;;;;;;;79.90;36.97;;;4.30;99.90;;;;;;4788216;29;20486;-64
2022/01/26 10:47:34;;;;;;;76.38;35.45;;;4.30;99.90;;;;;;4787057;29;20523;-64
2022/01/26 10:52:35;;;;;;;79.63;34.67;;;4.30;99.90;;;;;;4786045;29;20055;-64
2022/01/26 10:55:07;;;;;;;72.82;34.05;;;4.30;99.90;;;;;;4787417;29;20047;-64
2022/01/26 10:57:34;;;;;;;80.05;35.70;;;4.30;99.90;;;;;;4772496;30;20488;-64
2022/01/26 11:00:01;;;;;;;74.93;35.05;;;4.40;99.90;;;;;;4785265;29;20055;-64
2022/01/26 11:02:31;;;;;;;77.50;35.67;;;4.40;99.90;;;;;;4785923;29;20062;-64
2022/01/26 11:04:56;;;;;;;83.78;36.53;;;4.40;99.90;;;;;;4787711;29;20516;-64
2022/01/26 11:07:34;;;;;;;69.82;31.88;;;4.40;99.90;;;;;;4784798;29;20079;-64
2022/01/26 11:10:04;;;;;;;65.85;31.83;;;4.40;99.90;;;;;;4786968;29;20055;-64
2022/01/26 11:12:31;;;;;;;74.30;32.97;;;4.40;99.90;;;;;;4787575;29;20181;-64
2022/01/26 11:15:04;;;;;;;72.30;33.72;;;4.40;99.90;;;;;;4787354;29;20510;-64
2022/01/26 11:17:37;;;;;;;75.85;33.38;;;4.40;99.90;;;;;;4787380;29;20183;-64
2022/01/26 11:20:29;;;;;;;76.18;33.53;;;4.40;99.90;;;;;;4786531;29;20066;-64
2022/01/26 11:23:02;;;;;;;66.00;31.73;;;4.40;99.90;;;;;;4787353;29;20397;-64
2022/01/26 11:25:30;;;;;;;65.97;30.27;;;4.50;99.90;;;;;;4784416;29;20099;-64
2022/01/26 11:27:57;;;;;;;68.13;32.10;;;4.90;99.90;;;;;;4786467;29;20051;-64
2022/01/26 11:30:27;;;;;;;66.20;31.80;;;4.50;99.90;;;;;;4785467;29;20170;-64
2022/01/26 11:32:58;;;;;;;75.32;32.83;;;4.70;99.90;;;;;;4786800;29;20051;-64
2022/01/26 11:35:28;;;;;;;65.55;30.98;;;4.50;99.90;;;;;;4786706;29;20064;-64
2022/01/26 11:38:10;;;;;;;68.03;33.53;;;4.50;99.90;;;;;;4785231;29;20374;-64
2022/01/26 11:46:21;;;;;;;62.40;32.05;;;4.50;99.90;;;;;;4785921;29;20123;-64
2022/01/26 11:48:47;;;;;;;71.82;34.80;;;4.40;99.90;;;;;;4783783;29;20146;-64
2022/01/26 11:51:12;;;;;;;74.93;34.53;;;4.50;99.90;;;;;;4786754;29;20051;-64
2022/01/26 11:53:38;;;;;;;70.43;33.25;;;4.50;99.90;;;;;;4769710;29;20043;-64
2022/01/26 11:56:10;;;;;;;74.00;34.38;;;4.50;99.90;;;;;;4785492;29;20043;-64
2022/01/26 11:58:42;;;;;;;76.03;34.38;;;4.70;99.90;;;;;;4785986;29;20092;-64
2022/01/26 12:04:05;;;;;;;75.35;33.35;;;4.60;99.90;;;;;;4786677;29;20051;-64
2022/01/26 12:06:40;;;;;;;65.93;32.75;;;4.60;99.90;;;;;;4786658;29;20519;-64
2022/01/26 12:09:07;;;;;;;78.75;33.90;;;4.50;99.90;;;;;;4786688;29;20051;-64
2022/01/26 12:11:34;;;;;;;73.55;32.90;;;4.50;99.90;;;;;;4786610;29;20055;-63
2022/01/26 12:14:03;;;;;;;69.60;32.75;;;4.50;99.90;;;;;;4783792;29;20385;-63
2022/01/26 12:16:35;;;;;;;70.10;32.42;;;4.60;99.90;;;;;;4785971;29;20082;-63
2022/01/26 12:19:52;;;;;;;72.32;31.65;;;5.00;99.90;;;;;;4786743;29;20108;-63
2022/01/26 12:36:02;;;;;;;63.30;28.58;;;4.60;99.90;;;;;;4785345;30;20537;-63
2022/01/26 12:38:49;;;;;;;73.95;31.38;;;4.60;99.90;;;;;;4783801;29;20051;-63
2022/01/26 12:41:25;;;;;;;62.72;31.33;;;4.70;99.90;;;;;;4785651;29;20055;-63
2022/01/26 12:43:59;;;;;;;55.60;27.65;;;4.70;99.90;;;;;;4785644;29;20051;-63
2022/01/26 12:46:27;;;;;;;63.50;29.73;;;4.70;99.90;;;;;;4783716;29;20051;-63
2022/01/26 12:48:57;;;;;;;68.05;31.73;;;4.70;99.90;;;;;;4785914;29;20055;-63
2022/01/26 12:51:23;;;;;;;70.10;31.45;;;4.70;99.90;;;;;;4786112;29;20043;-63
2022/01/26 12:53:59;;;;;;;63.35;30.67;;;4.70;99.90;;;;;;4784604;29;20066;-63
2022/01/26 12:56:31;;;;;;;72.97;30.80;;;4.70;99.90;;;;;;4786008;29;20075;-63
2022/01/26 12:59:02;;;;;;;70.45;32.50;;;4.80;99.90;;;;;;4785244;29;20413;-63
2022/01/26 13:01:29;;;;;;;68.97;30.33;;;4.70;99.90;;;;;;4780614;29;20451;-63
2022/01/26 13:04:01;;;;;;;63.13;30.02;;;4.90;99.90;;;;;;4786016;29;20478;-63
2022/01/26 13:06:31;;;;;;;69.22;31.35;;;4.70;99.90;;;;;;4786263;29;20043;-63
2022/01/26 13:09:00;;;;;;;57.65;29.23;;;4.70;99.90;;;;;;4784701;29;20120;-63
2022/01/26 13:11:28;;;;;;;68.20;31.38;;;4.70;99.90;;;;;;4786040;29;20094;-63
2022/01/26 13:14:18;;;;;;;67.35;30.92;;;4.70;99.90;;;;;;4788319;29;20559;-63
2022/01/26 13:17:13;;;;;;;67.35;30.30;;;4.70;99.90;;;;;;4788009;29;20043;-63
2022/01/26 13:25:09;;;;;;;66.15;31.30;;;4.70;99.90;;;;;;4787323;29;20055;-63
2022/01/26 13:27:48;;;;;;;63.05;31.17;;;4.90;99.90;;;;;;4788434;29;20046;-63
2022/01/26 13:30:51;;;;;;;67.25;31.40;;;4.70;99.90;;;;;;4787403;29;20051;-63
2022/01/26 13:44:01;;;;;;;63.15;29.95;;;4.90;99.90;;;;;;4784368;29;20536;-64
2022/01/26 13:46:49;;;;;;;66.10;29.73;;;4.80;99.90;;;;;;4783493;29;20062;-64
2022/01/26 13:54:53;;;;;;;65.75;30.15;;;4.90;99.90;;;;;;4783291;29;20059;-64
2022/01/26 13:59:57;;;;;;;60.38;28.58;;;5.00;99.90;;;;;;4784136;29;20470;-64
2022/01/26 14:02:25;;;;;;;65.38;30.90;;;5.00;99.90;;;;;;4784141;29;20416;-64
2022/01/26 14:04:51;;;;;;;65.10;29.05;;;5.00;99.90;;;;;;4781713;29;20058;-64
2022/01/26 14:07:17;;;;;;;55.92;29.40;;;5.00;99.90;;;;;;4784847;29;20473;-64
2022/01/26 14:09:45;;;;;;;66.57;29.80;;;5.10;99.90;;;;;;4783142;29;20177;-64
2022/01/26 14:12:14;;;;;;;65.88;30.35;;;5.10;99.90;;;;;;4782880;29;20066;-64
2022/01/26 14:14:43;;;;;;;66.38;32.40;;;5.10;99.90;;;;;;4782349;29;20043;-65
2022/01/26 14:17:23;;;;;;;64.63;30.45;;;5.10;99.90;;;;;;4784169;29;20460;-64
2022/01/26 14:25:26;;;;;;;60.90;28.40;;;5.50;99.90;;;;;;4782076;29;20098;-65
2022/01/26 14:27:56;;;;;;;60.38;29.08;;;5.30;99.90;;;;;;4782808;29;20150;-64
2022/01/26 14:50:53;;;;;;;66.18;29.20;;;5.20;99.90;;;;;;4782143;29;20752;-67
2022/01/26 15:30:22;;;;;;;55.20;26.08;;;5.10;99.90;;;;;;4781040;29;20149;-67
2022/01/26 15:44:06;;;;;;;63.50;28.02;;;5.20;99.90;;;;;;4779750;29;20517;-67
2022/01/26 15:49:41;;;;;;;61.75;28.83;;;5.20;99.90;;;;;;4779290;29;20063;-67
2022/01/26 16:07:52;;;;;;;57.47;28.48;;;5.20;99.90;;;;;;4780818;29;20465;-67
2022/01/26 16:16:28;;;;;;;63.58;28.73;;;5.20;99.90;;;;;;4780423;29;20078;-67
2022/01/26 16:26:28;;;;;;;55.88;27.52;;;5.30;99.90;;;;;;4781475;29;20051;-67
2022/01/26 17:47:30;;;;;;;51.53;24.00;;;5.40;99.90;;;;;;4782733;29;20101;-67
2022/01/26 18:38:45;;;;;;;43.72;24.25;;;5.50;99.90;;;;;;4782537;29;20051;-67
2022/01/26 18:49:39;;;;;;;50.60;27.48;;;5.40;99.90;;;;;;4782258;29;20540;-68
2022/01/26 18:52:06;;;;;;;53.05;27.58;;;5.40;99.90;;;;;;4780999;29;20058;-67
2022/01/26 18:54:35;;;;;;;58.88;28.30;;;5.40;99.90;;;;;;4782932;29;20066;-68
2022/01/26 18:57:03;;;;;;;53.05;27.98;;;5.40;99.90;;;;;;4782379;29;20500;-68
2022/01/26 18:59:30;;;;;;;49.55;26.95;;;5.40;99.90;;;;;;4780177;29;20059;-67
2022/01/26 19:01:58;;;;;;;63.20;31.42;;;5.40;99.90;;;;;;4780970;29;20059;-67
2022/01/26 19:04:37;;;;;;;53.75;29.15;;;5.40;99.90;;;;;;4780730;29;20043;-68
2022/01/26 19:07:04;;;;;;;55.33;28.73;;;5.40;99.90;;;;;;4781602;29;20454;-68
2022/01/26 19:09:38;;;;;;;53.55;27.95;;;5.40;99.90;;;;;;4779717;29;20043;-67
2022/01/26 19:12:07;;;;;;;61.20;30.15;;;5.40;99.90;;;;;;4781238;29;20115;-67
2022/01/26 19:14:37;;;;;;;53.05;29.80;;;5.40;99.90;;;;;;4781534;29;20089;-68
2022/01/26 19:17:13;;;;;;;59.55;31.90;;;5.40;99.90;;;;;;4781054;29;20067;-67
2022/01/26 19:27:54;;;;;;;63.28;30.70;;;5.30;99.90;;;;;;4781496;29;20051;-67
2022/01/26 19:40:11;;;;;;;61.95;31.67;;;5.30;99.90;;;;;;4781579;29;20505;-67
2022/01/26 19:51:23;;;;;;;58.42;31.17;;;5.30;99.90;;;;;;4732625;29;20067;-67
2022/01/26 19:53:49;;;;;;;59.17;32.08;;;5.30;99.90;;;;;;4782568;29;20047;-67
2022/01/26 19:56:15;;;;;;;62.60;31.70;;;5.30;99.90;;;;;;4782123;29;20043;-68